Terminal Aerodrome Forecast
Issued by NWS Twin Cities, MN

Home | Current Version | Previous Version | Text Only | Print | Product List | Glossary Off
Versions: 1 2 3 4 5 6 7 8 9 10 11 12 13 14 15 16 17 18 19

000
FTUS43 KMPX 041120
TAFSTC
TAF
KSTC 041120Z 0412/0512 VRB03KT 1SM BR SCT040
     FM041330 14004KT 3SM HZ SCT050 BKN250
     FM041800 18007KT 6SM HZ SCT050 BKN250
     FM050100 17006KT P6SM SKC=

USA.gov is the U.S. government's official web portal to all federal, state and local government web resources and services.